Ride Results

Kilkivan (19-09-2015)
Ride distance: 80.0 km

Outcomes - Kilkivan (19-09-2015)
Division No. of Entries Retired / DNE Completed Withdrawn Ineligible V/O Percentage Completed
HW 11 - 7 2 - 2 63.64%
MW 38 - 28 5 - 5 73.68%
LW 21 - 18 - - 3 85.71%
JN 19 - 13 3 - 3 68.42%
Totals 89 - 66 10 - 13 74.16%
Results - Kilkivan (19-09-2015)
No. Rider Horse Place Time Leg Speeds Total
Km/Hr
H/R bpm
Heavyweight
106 Greg Lyon Chingford Just Dreaming 1 (BC) 4:24:00 17.2, 19.1 18.18 36, 44, 46 (Avg:45)
141 Olaf Lochtenberg Matta Mia Akwaseh 2 6:44:00 11.5, 12.2 11.88 35, 47, 50 (Avg:48)
184 Tasha Ellison Miss Jayne 3 7:01:00 10.3, 12.7 11.40 37, 48, 50 (Avg:49)
177 Matthew Gadsby Aloha Fair Queen 3 7:01:00 10.3, 12.7 11.40 34, 42, 51 (Avg:46)
167 Emma Quilter Performance Park Indiana 5 7:08:00 11.4, 10.9 11.21 38, 49, 53 (Avg:51)
115 Gillian Taylor Cool Water Safara 6 7:41:00 10.8, 10.0 10.41 33, 52, 56 (Avg:54)
190 Danielle Cullen Miva Zamil 7 7:45:00 10.3, 10.3 10.32 32, 44, 54 (Avg:49)
189 Robyn Pembroke Mt Eerwah Solomon Lame L2 0:00:00 10.3, 10.3 - 34, 41, 53 (Avg:47)
172 Debbie Forsdike Ry-Naura Dandie Heart Rate L1 0:00:00 12.6 - 40, 66 (Avg:66)
175 Mark Nimon 77 Cent Withdrawn L1 0:00:00 - - 38, 49 (Avg:49)
186 Anthony Wolgast Sweet Sensation Withdrawn L1 0:00:00 - - 46, 42 (Avg:42)
Middleweight
137 Fiona Fenech Winderella Lodge Sphinx 1 (BC) 4:02:00 18.5, 21.3 19.83 34, 41, 45 (Avg:43)
217 Natasha Willemse Hillbrae Alec 2 4:20:00 18.3, 18.6 18.46 32, 49, 47 (Avg:48)
133 Gayle Holmes Cairo 3 5:32:00 14.2, 14.6 14.46 34, 46, 48 (Avg:47)
181 Bec Miller Splendacrest Quidam 4 5:37:00 14.2, 14.2 14.24 37, 48, 51 (Avg:49)
158 Erin Krahnen Glengannon Azazael 5 5:54:00 12.5, 14.7 13.56 35, 45, 46 (Avg:45)
160 Simone Krahnen La Battista Shadow Fax 5 5:54:00 12.5, 14.7 13.56 35, 50, 59 (Avg:54)
169 Adrian Brickley Lion Hunter 7 6:03:00 12.6, 13.7 13.22 34, 42, 47 (Avg:44)
105 Michael Combe Nasr 7 6:03:00 12.6, 13.8 13.22 36, 46, 47 (Avg:46)
174 Lynne Drinkwater Ollympia 9 6:15:00 12.3, 13.3 12.80 36, 41, 45 (Avg:43)
215 Johann Willemse Joslian Shaka Zulu 10 6:27:00 12.6, 12.1 12.40 38, 49, 50 (Avg:49)
110 Ruth Dixon El Romero 11 6:40:00 12.9, 11.2 12.00 34, 43, 50 (Avg:46)
120 Amanda Wilson Brookleigh Quincy 11 6:40:00 11.4, 12.6 12.00 34, 44, 49 (Avg:46)
134 Barbara Woods Magic Glenn General 11 6:40:00 11.4, 12.6 12.00 36, 40, 46 (Avg:43)
195 Tayla Hadzi Ausden Prince Mahal 14 6:43:00 10.6, 13.4 11.91 36, 43, 50 (Avg:46)
108 John Dugan Performance Park Illusion 15 6:44:00 12.4, 11.3 11.88 33, 48, 51 (Avg:49)
162 Caroline Fitzgerald Lanamere Kudos 15 6:44:00 11.6, 12.1 11.88 36, 43, 47 (Avg:45)
142 Linda Lochtenberg Matta Mia A Latte 15 6:44:00 11.5, 12.2 11.88 40, 55, 50 (Avg:52)
196 Casey Risson Die Kinder Mysfyre 15 6:44:00 11.6, 12.1 11.88 43, 48, 51 (Avg:49)
145 Sabrina Stephens Burralga Barbarian 15 6:44:00 11.6, 12.1 11.88 36, 42, 43 (Avg:42)
178 Akhmed Pshunov No Regret Shocking 20 6:47:00 10.7, 13.1 11.79 39, 46, 45 (Avg:45)
156 Lainie Zischke The Big Dipper 20 6:47:00 10.7, 13.1 11.79 37, 42, 52 (Avg:47)
197 Cora Becker Kholonial Trinity 22 6:54:00 12.1, 11.1 11.59 41, 51, 46 (Avg:48)
147 Yvonne Hain Janita La Tori 23 7:01:00 11.5, 11.2 11.40 35, 48, 51 (Avg:49)
124 Brenda Davy Bashan Memphis 24 7:03:00 11.2, 11.4 11.35 40, 40, 46 (Avg:43)
149 Ema Basic Melton Teddy Bear 25 7:42:00 10.8, 9.9 10.39 30, 50, 47 (Avg:48)
104 Rachel Adams Zanabah Park Shylock 26 7:43:00 10.0, 10.6 10.37 36, 50, 57 (Avg:53)
191 Michelle Goudge Mt Eerwah Romonous 27 7:45:00 10.3, 10.3 10.32 35, 42, 49 (Avg:45)
192 Hayley Sawrey Agape SamuElla Australis 27 7:45:00 10.3, 10.3 10.32 30, 36, 40 (Avg:38)
185 Alli Gerrard Magic Glenn Chisel Lame L2 0:00:00 11.3, 12.4 - 31, 39, 44 (Avg:41)
164 Mark Grogan Cajun Heart Rate L2 0:00:00 11.4, 10.9 - 34, 47, 65 (Avg:56)
193 Angela Head Dee Zyne Wizz Kid Withdrawn L2 0:00:00 - - 34, 48 (Avg:48)
130 Angela Waldock Gundabah Fair Lady Heart Rate L2 0:00:00 17.3, 19.0 - 32, 50, 78 (Avg:64)
148 Kerrie Ellery Erehwon Park Quiz Master Withdrawn L1 0:00:00 - - 38, 41 (Avg:41)
194 Rosemary Hull Mekkah Burkan Heart Rate L1 0:00:00 9.4 - 57, 60 (Avg:60)
199 Celeste Manwaring Jum Jum Silver Storm Withdrawn L1 0:00:00 - - 37, 43 (Avg:43)
113 Kathleen Roberts Kholonial Lord Seth Withdrawn L1 0:00:00 - - 42, 42 (Avg:42)
116 Rob Scott Count Crysdafa Lame L1 0:00:00 10.9 - 35, 40 (Avg:40)
103 Warwick Toft Bremervale Silver Chair Withdrawn L1 0:00:00 - - 33, 40 (Avg:40)
Lightweight
218 Jess Ashman Gums Kawielie 1 4:20:00 18.3, 18.6 18.46 39, 52, 49 (Avg:50)
114 Karen Winkel Ranek Boz 2 (BC) 4:23:00 17.3, 19.1 18.25 41, 44, 48 (Avg:46)
140 Jocelyn Barnes Trinity 3 5:32:00 14.6, 14.2 14.46 39, 48, 48 (Avg:48)
187 Katherine Bannermann Brookleigh Latika 4 6:40:00 11.4, 12.6 12.00 38, 46, 46 (Avg:46)
170 Mary Sims Mt Eerwah Silver Duet 4 6:40:00 12.6, 11.4 12.00 36, 49, 41 (Avg:45)
143 Janelle Taylor Matta Mia Kassanova 6 6:44:00 11.5, 12.2 11.88 39, 42, 49 (Avg:45)
119 Malin Olsson Brookleigh Ferris 7 6:45:00 11.3, 12.4 11.85 35, 43, 46 (Avg:44)
188 Leigh Ann Sample Brookleigh Jumeirah 7 6:45:00 11.3, 12.4 11.85 31, 39, 43 (Avg:41)
182 Kate Appleby Hirstglen Probably 9 6:47:00 11.1, 12.5 11.79 33, 43, 52 (Avg:47)
179 Kaylea Maher Sangah The Messiah 9 6:47:00 10.7, 13.1 11.79 38, 50, 52 (Avg:51)
173 Jan Tyrrell Steel Poppy Bayeux 9 6:47:00 12.1, 11.4 11.79 37, 47, 45 (Avg:46)
112 Sonya Ryan Kholonial Amigo 12 6:58:00 10.8, 12.1 11.48 34, 43, 53 (Avg:48)
180 Jessyca Dakin Hirstglen Cruisader 13 7:01:00 11.1, 11.7 11.40 34, 39, 44 (Avg:41)
183 Mindy Davies Hirstglen Bellarina 13 7:01:00 10.3, 12.7 11.40 36, 43, 48 (Avg:45)
168 Rachel Kuns Kelkette Park Silver Indicator 15 7:08:00 11.4, 10.9 11.21 32, 53, 49 (Avg:51)
152 Adriana Sardoni Willowvale Sirahh 16 7:12:00 11.0, 11.1 11.11 36, 44, 43 (Avg:43)
165 Claudia Gillies Kholonial Boadecia 17 7:47:00 10.0, 10.5 10.28 35, 48, 40 (Avg:44)
166 Carla Jones Kholonial Bartholomew 17 7:47:00 10.0, 10.5 10.28 34, 52, 51 (Avg:51)
121 Hedi Laigar Brookleigh Eldorado Lame L2 0:00:00 11.3, 12.4 - 38, 40, 41 (Avg:40)
151 Victoria Clarke Milton Lame L1 0:00:00 11.0 - 31, 52 (Avg:52)
150 Christal Rizk The Terminator Heart Rate L1 0:00:00 10.8 - 40, 75 (Avg:75)
Junior
136 Emma Dimech Bellarine Passiona 1 4:02:00 18.5, 21.3 19.83 36, 47, 46 (Avg:46)
132 Tahlia Franke Indiana Seabreeze 2 (BC) 4:24:00 17.3, 19.0 18.18 35, 41, 42 (Avg:41)
161 Jessica Fitzgerald Beaudacious te 3 6:44:00 11.6, 12.1 11.88 30, 40, 39 (Avg:39)
163 Timothy Fitzgerald Lanamere Brio 3 6:44:00 11.6, 12.1 11.88 35, 41, 46 (Avg:43)
109 Ben Hoey Monarch Park Cimarron 3 6:44:00 12.4, 11.3 11.88 47, 53, 48 (Avg:50)
176 Jodie Tilse Esme te 6 6:47:00 10.7, 13.1 11.79 38, 49, 53 (Avg:51)
111 Louis Ryan Lindall Farouk 7 6:58:00 10.8, 12.1 11.48 38, 41, 47 (Avg:44)
125 Maeve Paten Gheerulla Aspen 8 7:03:00 11.2, 11.4 11.35 35, 44, 50 (Avg:47)
129 Christina Simpson Agape Evezra 8 7:03:00 11.2, 11.4 11.35 37, 43, 50 (Avg:46)
126 Mel Simpson Kelkette Park Silver Envoy 8 7:03:00 11.2, 11.4 11.35 37, 47, 52 (Avg:49)
171 Anastasia Craig Kirra 11 7:06:00 10.9, 11.6 11.27 33, 45, 50 (Avg:47)
118 Anita Maggacis Katushka 11 7:06:00 10.9, 11.6 11.27 38, 48, 46 (Avg:47)
153 Erin Ellison Ardair Skoda 13 7:12:00 11.0, 11.1 11.11 35, 43, 45 (Avg:44)
155 Jasmine Perrier Sahala Abu Simbel Lame L2 0:00:00 11.0, 11.1 - 30, 34, 40 (Avg:37)
122 Gemma Sutcliffe Brookleigh Juno Lame L2 0:00:00 11.3, 11.4 - 40, 46, 49 (Avg:47)
198 Anu Woodruff-Becker Teddy Withdrawn L2 0:00:00 - - 28, 42, 47 (Avg:44)
135 Alissa Woods Magic Glenn Torbreck Lame L2 0:00:00 11.4, 12.6 - 34, 41, 46 (Avg:43)
102 Madeline Toft Bremervale Lazarus Withdrawn L1 0:00:00 - - 44, 51 (Avg:51)
123 Jazzy Maher Bashan Kayla Withdrawn P/R 0:00:00 - - 31